ALK103 WSSS-VCBI
Flight info
| Callsign | ALK103 |
|---|---|
| Flight time | 1h 45m |
| Altitude | 35000 |
| Route | AROSO3A AROSO Y513 KALIL Y504 BILIK G582 PUGER R461 ISVUR P756 MABIX P570 VEVET DUDAL1A |
| Aircraft | A320/M-SDE3FGHIRWY/LB1 |
Departure
| Time | 2026-05-05 11:39 |
|---|---|
| Airport | Singapore Changi Airport (WSSS) |
Arrival
| Time | 2026-05-05 13:24 |
|---|---|
| Airport | Bandaranaike International Colombo Airport (VCBI) |
| Time | Latitude | Longitude | Altitude | Speed | Heading |
|---|---|---|---|---|---|
| 2026-05-05 11:05 | 1.36106 | 103.98768 | 26 ft | 0 kts | 111° |
| 2026-05-05 11:25 | 1.36106 | 103.98767 | 26 ft | 0 kts | 111° |
| 2026-05-05 11:26 | 1.36108 | 103.98762 | 31 ft | 0 kts | 111° |
| 2026-05-05 11:27 | 1.36110 | 103.98758 | 30 ft | 2 kts | 111° |
| 2026-05-05 11:28 | 1.36116 | 103.98742 | 30 ft | 2 kts | 111° |
| 2026-05-05 11:28 | 1.36122 | 103.98726 | 30 ft | 3 kts | 105° |
| 2026-05-05 11:28 | 1.36124 | 103.98709 | 30 ft | 2 kts | 88° |
| 2026-05-05 11:28 | 1.36123 | 103.98691 | 28 ft | 2 kts | 88° |
| 2026-05-05 11:29 | 1.36123 | 103.98674 | 30 ft | 2 kts | 88° |
| 2026-05-05 11:29 | 1.36120 | 103.98656 | 26 ft | 3 kts | 57° |
| 2026-05-05 11:29 | 1.36111 | 103.98645 | 26 ft | 0 kts | 31° |
| 2026-05-05 11:30 | 1.36112 | 103.98646 | 26 ft | 2 kts | 31° |
| 2026-05-05 11:30 | 1.36129 | 103.98656 | 26 ft | 0 kts | 29° |
| 2026-05-05 11:30 | 1.36130 | 103.98657 | 26 ft | 2 kts | 29° |
| 2026-05-05 11:31 | 1.36188 | 103.98684 | 26 ft | 16 kts | 24° |
| 2026-05-05 11:31 | 1.36286 | 103.98724 | 29 ft | 12 kts | 22° |
| 2026-05-05 11:31 | 1.36355 | 103.98752 | 29 ft | 10 kts | 22° |
| 2026-05-05 11:31 | 1.36411 | 103.98774 | 27 ft | 8 kts | 21° |
| 2026-05-05 11:32 | 1.36456 | 103.98793 | 27 ft | 6 kts | 24° |
| 2026-05-05 11:32 | 1.36497 | 103.98808 | 25 ft | 8 kts | 17° |
| 2026-05-05 11:32 | 1.36572 | 103.98812 | 25 ft | 14 kts | 354° |
| 2026-05-05 11:32 | 1.36681 | 103.98799 | 25 ft | 16 kts | 359° |
| 2026-05-05 11:33 | 1.36707 | 103.98803 | 24 ft | 1 kts | 13° |
| 2026-05-05 11:33 | 1.36717 | 103.98807 | 24 ft | 0 kts | 19° |
| 2026-05-05 11:33 | 1.36720 | 103.98808 | 24 ft | 3 kts | 20° |
| 2026-05-05 11:33 | 1.36794 | 103.98858 | 24 ft | 4 kts | 55° |
| 2026-05-05 11:34 | 1.36794 | 103.98859 | 24 ft | 1 kts | 58° |
| 2026-05-05 11:34 | 1.36794 | 103.98892 | 24 ft | 9 kts | 98° |
| 2026-05-05 11:34 | 1.36763 | 103.98979 | 25 ft | 18 kts | 112° |
| 2026-05-05 11:34 | 1.36705 | 103.99115 | 25 ft | 23 kts | 113° |
| 2026-05-05 11:35 | 1.36639 | 103.99266 | 27 ft | 24 kts | 113° |
| 2026-05-05 11:35 | 1.36579 | 103.99406 | 31 ft | 21 kts | 112° |
| 2026-05-05 11:35 | 1.36520 | 103.99545 | 30 ft | 22 kts | 113° |
| 2026-05-05 11:35 | 1.36465 | 103.99676 | 30 ft | 19 kts | 112° |
| 2026-05-05 11:36 | 1.36416 | 103.99792 | 30 ft | 15 kts | 113° |
| 2026-05-05 11:36 | 1.36373 | 103.99860 | 29 ft | 11 kts | 140° |
| 2026-05-05 11:36 | 1.36302 | 103.99882 | 26 ft | 11 kts | 172° |
| 2026-05-05 11:36 | 1.36222 | 103.99890 | 24 ft | 11 kts | 175° |
| 2026-05-05 11:37 | 1.36157 | 103.99877 | 24 ft | 0 kts | 201° |
| 2026-05-05 11:38 | 1.36154 | 103.99876 | 26 ft | 3 kts | 201° |
| 2026-05-05 11:38 | 1.35933 | 103.99782 | 25 ft | 72 kts | 203° |
| 2026-05-05 11:38 | 1.35274 | 103.99504 | 27 ft | 132 kts | 202° |
| 2026-05-05 11:39 | 1.34272 | 103.99080 | 49 ft | 176 kts | 202° |
| 2026-05-05 11:39 | 1.33129 | 103.98597 | 597 ft | 180 kts | 203° |
| 2026-05-05 11:39 | 1.31955 | 103.98107 | 1251 ft | 186 kts | 203° |
| 2026-05-05 11:39 | 1.30737 | 103.97628 | 1925 ft | 190 kts | 197° |
| 2026-05-05 11:40 | 1.29423 | 103.97392 | 2605 ft | 193 kts | 194° |
| 2026-05-05 11:40 | 1.28186 | 103.96814 | 3148 ft | 203 kts | 219° |
| 2026-05-05 11:40 | 1.27235 | 103.95729 | 3536 ft | 219 kts | 235° |
| 2026-05-05 11:40 | 1.26430 | 103.94388 | 3941 ft | 229 kts | 253° |
| 2026-05-05 11:41 | 1.26354 | 103.92807 | 4344 ft | 232 kts | 285° |
| 2026-05-05 11:41 | 1.27146 | 103.91422 | 4756 ft | 234 kts | 317° |
| 2026-05-05 11:41 | 1.28568 | 103.90640 | 4984 ft | 237 kts | 348° |
| 2026-05-05 11:41 | 1.30193 | 103.90705 | 5012 ft | 237 kts | 20° |
| 2026-05-05 11:42 | 1.31616 | 103.91527 | 5015 ft | 238 kts | 36° |
| 2026-05-05 11:42 | 1.32949 | 103.92508 | 5017 ft | 238 kts | 37° |
| 2026-05-05 11:42 | 1.34288 | 103.93518 | 5017 ft | 238 kts | 37° |
| 2026-05-05 11:42 | 1.35596 | 103.94511 | 5017 ft | 239 kts | 37° |
| 2026-05-05 11:43 | 1.36916 | 103.95515 | 5015 ft | 238 kts | 37° |
| 2026-05-05 11:43 | 1.38235 | 103.96519 | 5014 ft | 238 kts | 37° |
| 2026-05-05 11:43 | 1.39552 | 103.97522 | 5012 ft | 238 kts | 37° |
| 2026-05-05 11:43 | 1.40873 | 103.98528 | 5017 ft | 238 kts | 37° |
| 2026-05-05 11:44 | 1.42149 | 103.99502 | 5665 ft | 227 kts | 37° |
| 2026-05-05 11:44 | 1.43430 | 104.00478 | 6238 ft | 237 kts | 37° |
| 2026-05-05 11:44 | 1.44760 | 104.01493 | 6703 ft | 243 kts | 37° |
| 2026-05-05 11:44 | 1.46111 | 104.02524 | 7201 ft | 245 kts | 37° |
| 2026-05-05 11:45 | 1.47471 | 104.03564 | 7717 ft | 246 kts | 37° |
| 2026-05-05 11:45 | 1.48806 | 104.04584 | 8549 ft | 238 kts | 37° |
| 2026-05-05 11:45 | 1.50102 | 104.05577 | 9391 ft | 232 kts | 37° |
| 2026-05-05 11:45 | 1.51462 | 104.06397 | 10097 ft | 229 kts | 17° |
| 2026-05-05 11:46 | 1.53044 | 104.06582 | 10583 ft | 234 kts | 351° |
| 2026-05-05 11:46 | 1.54590 | 104.06025 | 11010 ft | 243 kts | 325° |
| 2026-05-05 11:46 | 1.55462 | 104.05299 | 11313 ft | 249 kts | 315° |
| 2026-05-05 11:46 | 1.57130 | 104.03615 | 11988 ft | 259 kts | 309° |
| 2026-05-05 11:47 | 1.57873 | 104.02677 | 12345 ft | 261 kts | 308° |
| 2026-05-05 11:47 | 1.59023 | 104.01252 | 12896 ft | 267 kts | 310° |
| 2026-05-05 11:47 | 1.60321 | 103.99897 | 13471 ft | 272 kts | 318° |
| 2026-05-05 11:47 | 1.62335 | 103.98375 | 14268 ft | 276 kts | 326° |
| 2026-05-05 11:48 | 1.65657 | 103.96428 | 15484 ft | 278 kts | 333° |
| 2026-05-05 11:48 | 1.67395 | 103.95574 | 16100 ft | 278 kts | 334° |
| 2026-05-05 11:48 | 1.68577 | 103.95015 | 16506 ft | 278 kts | 335° |
| 2026-05-05 11:49 | 1.70333 | 103.94207 | 17119 ft | 278 kts | 335° |
| 2026-05-05 11:49 | 1.72103 | 103.93359 | 17484 ft | 289 kts | 333° |
| 2026-05-05 11:49 | 1.73985 | 103.92438 | 17480 ft | 313 kts | 333° |
| 2026-05-05 11:49 | 1.75979 | 103.91463 | 17834 ft | 322 kts | 334° |
| 2026-05-05 11:50 | 1.78004 | 103.90476 | 18313 ft | 326 kts | 330° |
| 2026-05-05 11:50 | 1.79771 | 103.89107 | 18799 ft | 328 kts | 310° |
| 2026-05-05 11:50 | 1.81126 | 103.87228 | 19317 ft | 330 kts | 304° |
| 2026-05-05 11:50 | 1.82398 | 103.85349 | 19859 ft | 331 kts | 302° |
| 2026-05-05 11:51 | 1.83578 | 103.83375 | 20405 ft | 332 kts | 296° |
| 2026-05-05 11:51 | 1.84409 | 103.81226 | 20952 ft | 332 kts | 285° |
| 2026-05-05 11:51 | 1.84973 | 103.78985 | 21481 ft | 332 kts | 286° |
| 2026-05-05 11:51 | 1.85788 | 103.76830 | 22004 ft | 332 kts | 298° |
| 2026-05-05 11:52 | 1.87089 | 103.74927 | 22518 ft | 332 kts | 308° |
| 2026-05-05 11:52 | 1.88516 | 103.73116 | 23051 ft | 331 kts | 308° |
| 2026-05-05 11:52 | 1.89967 | 103.71347 | 23571 ft | 329 kts | 310° |
| 2026-05-05 11:52 | 1.91485 | 103.69627 | 24104 ft | 328 kts | 311° |
| 2026-05-05 11:53 | 1.93104 | 103.67997 | 24302 ft | 337 kts | 325° |
| 2026-05-05 11:53 | 1.95151 | 103.66775 | 24441 ft | 348 kts | 327° |
| 2026-05-05 11:53 | 1.96914 | 103.65113 | 24560 ft | 357 kts | 303° |
| 2026-05-05 11:53 | 1.98161 | 103.62932 | 24695 ft | 367 kts | 297° |
| 2026-05-05 11:54 | 1.99410 | 103.60665 | 24822 ft | 377 kts | 300° |
| 2026-05-05 11:54 | 2.00827 | 103.58418 | 24950 ft | 387 kts | 304° |
| 2026-05-05 11:54 | 2.02409 | 103.56189 | 25077 ft | 396 kts | 306° |
| 2026-05-05 11:54 | 2.04103 | 103.53984 | 25204 ft | 405 kts | 308° |
| 2026-05-05 11:55 | 2.05884 | 103.51752 | 25331 ft | 414 kts | 308° |
| 2026-05-05 11:55 | 2.07697 | 103.49494 | 25457 ft | 422 kts | 308° |
| 2026-05-05 11:55 | 2.09541 | 103.47173 | 25589 ft | 429 kts | 308° |
| 2026-05-05 11:55 | 2.11390 | 103.44811 | 25838 ft | 433 kts | 308° |
| 2026-05-05 11:56 | 2.13199 | 103.42403 | 26118 ft | 435 kts | 303° |
| 2026-05-05 11:56 | 2.14666 | 103.39747 | 26399 ft | 437 kts | 293° |
| 2026-05-05 11:56 | 2.15682 | 103.36920 | 26701 ft | 439 kts | 285° |
| 2026-05-05 11:56 | 2.16520 | 103.33982 | 26994 ft | 441 kts | 286° |
| 2026-05-05 11:57 | 2.17382 | 103.31030 | 27284 ft | 443 kts | 286° |
| 2026-05-05 11:57 | 2.18259 | 103.28066 | 27562 ft | 445 kts | 286° |
| 2026-05-05 11:57 | 2.19137 | 103.25109 | 27831 ft | 447 kts | 286° |
| 2026-05-05 11:57 | 2.20025 | 103.22104 | 28097 ft | 448 kts | 286° |
| 2026-05-05 11:58 | 2.20907 | 103.19108 | 28349 ft | 450 kts | 286° |
| 2026-05-05 11:58 | 2.21789 | 103.16098 | 28596 ft | 452 kts | 286° |
| 2026-05-05 11:58 | 2.22673 | 103.13078 | 28840 ft | 454 kts | 286° |
| 2026-05-05 11:58 | 2.23560 | 103.10041 | 29080 ft | 455 kts | 286° |
| 2026-05-05 11:59 | 2.24446 | 103.07003 | 29313 ft | 457 kts | 286° |
| 2026-05-05 11:59 | 2.25338 | 103.03950 | 29544 ft | 458 kts | 286° |
| 2026-05-05 11:59 | 2.26232 | 103.00887 | 29772 ft | 460 kts | 286° |
| 2026-05-05 11:59 | 2.27131 | 102.97809 | 30067 ft | 459 kts | 286° |
| 2026-05-05 12:00 | 2.28024 | 102.94757 | 30396 ft | 458 kts | 286° |
| 2026-05-05 12:00 | 2.28925 | 102.91688 | 30678 ft | 458 kts | 286° |
| 2026-05-05 12:00 | 2.29817 | 102.88652 | 31263 ft | 449 kts | 286° |
| 2026-05-05 12:00 | 2.30673 | 102.85733 | 31988 ft | 438 kts | 286° |
| 2026-05-05 12:01 | 2.31517 | 102.82848 | 32736 ft | 426 kts | 286° |
| 2026-05-05 12:01 | 2.32339 | 102.80035 | 33326 ft | 420 kts | 286° |
| 2026-05-05 12:01 | 2.33997 | 102.74338 | 33427 ft | 432 kts | 286° |
| 2026-05-05 12:02 | 2.34844 | 102.71434 | 33537 ft | 436 kts | 286° |
| 2026-05-05 12:02 | 2.35689 | 102.68549 | 34071 ft | 427 kts | 286° |
| 2026-05-05 12:02 | 2.36515 | 102.65734 | 34706 ft | 418 kts | 286° |
| 2026-05-05 12:02 | 2.37336 | 102.62933 | 34946 ft | 419 kts | 286° |
| 2026-05-05 12:03 | 2.45949 | 102.33265 | 35007 ft | 0 kts | 295° |
| 2026-05-05 12:03 | 3.30472 | 101.17534 | 35007 ft | 0 kts | 270° |
| 2026-05-05 12:03 | 3.34729 | 100.66357 | 35007 ft | 32000 kts | 285° |
| 2026-05-05 12:04 | 3.45411 | 97.86905 | 35007 ft | 32000 kts | 271° |
| 2026-05-05 12:04 | 3.34365 | 95.82087 | 35007 ft | 0 kts | 259° |
| 2026-05-05 12:04 | 3.28324 | 94.98696 | 35007 ft | 0 kts | 266° |
| 2026-05-05 12:05 | 3.27704 | 94.90132 | 35007 ft | 0 kts | 277° |
| 2026-05-05 12:05 | 3.96878 | 92.45518 | 35007 ft | 0 kts | 283° |
| 2026-05-05 12:05 | 4.44613 | 90.44064 | 35007 ft | 0 kts | 283° |
| 2026-05-05 12:06 | 4.60615 | 89.80766 | 35007 ft | 32000 kts | 280° |
| 2026-05-05 12:06 | 5.47310 | 86.68520 | 35007 ft | 0 kts | 284° |
| 2026-05-05 12:06 | 5.50468 | 86.55634 | 35120 ft | 422 kts | 284° |
| 2026-05-05 12:06 | 5.51038 | 86.53007 | 35594 ft | 416 kts | 273° |
| 2026-05-05 12:07 | 5.50850 | 86.50129 | 35860 ft | 413 kts | 260° |
| 2026-05-05 12:07 | 5.50314 | 86.47287 | 35895 ft | 417 kts | 258° |
| 2026-05-05 12:07 | 5.49767 | 86.44435 | 35245 ft | 427 kts | 264° |
| 2026-05-05 12:07 | 5.49713 | 86.41386 | 35006 ft | 437 kts | 276° |
| 2026-05-05 12:08 | 5.51082 | 86.35436 | 35010 ft | 445 kts | 284° |
| 2026-05-05 12:08 | 5.52663 | 86.29405 | 35005 ft | 447 kts | 284° |
| 2026-05-05 12:09 | 5.54244 | 86.23357 | 35011 ft | 448 kts | 284° |
| 2026-05-05 12:09 | 5.55818 | 86.17317 | 35008 ft | 448 kts | 284° |
| 2026-05-05 12:10 | 5.57388 | 86.11265 | 35003 ft | 448 kts | 284° |
| 2026-05-05 12:10 | 5.58963 | 86.05219 | 34761 ft | 446 kts | 284° |
| 2026-05-05 12:11 | 5.59751 | 86.02198 | 34194 ft | 446 kts | 284° |
| 2026-05-05 12:11 | 5.60536 | 85.99192 | 33991 ft | 448 kts | 284° |
| 2026-05-05 12:11 | 5.62115 | 85.93132 | 34008 ft | 449 kts | 284° |
| 2026-05-05 12:12 | 5.63701 | 85.87058 | 34010 ft | 450 kts | 284° |
| 2026-05-05 12:12 | 5.65285 | 85.80984 | 34008 ft | 450 kts | 284° |
| 2026-05-05 12:13 | 5.66858 | 85.74913 | 34010 ft | 450 kts | 284° |
| 2026-05-05 12:13 | 5.68433 | 85.68826 | 34010 ft | 450 kts | 284° |
| 2026-05-05 12:14 | 5.70014 | 85.62753 | 34010 ft | 450 kts | 284° |
| 2026-05-05 12:14 | 5.71583 | 85.56721 | 34010 ft | 450 kts | 284° |
| 2026-05-05 12:15 | 5.73158 | 85.50646 | 34007 ft | 450 kts | 284° |
| 2026-05-05 12:15 | 5.74730 | 85.44564 | 34010 ft | 450 kts | 284° |
| 2026-05-05 12:16 | 5.76309 | 85.38480 | 34010 ft | 450 kts | 284° |
| 2026-05-05 12:16 | 5.77883 | 85.32403 | 34007 ft | 450 kts | 284° |
| 2026-05-05 12:17 | 5.79448 | 85.26331 | 34010 ft | 450 kts | 284° |
| 2026-05-05 12:17 | 5.81030 | 85.20244 | 34010 ft | 450 kts | 284° |
| 2026-05-05 12:18 | 5.82604 | 85.14167 | 34006 ft | 450 kts | 284° |
| 2026-05-05 12:18 | 5.84172 | 85.08092 | 34010 ft | 450 kts | 284° |
| 2026-05-05 12:19 | 5.85749 | 85.02007 | 34010 ft | 450 kts | 284° |
| 2026-05-05 12:19 | 5.87309 | 84.95976 | 34010 ft | 450 kts | 284° |
| 2026-05-05 12:20 | 5.88878 | 84.89887 | 34010 ft | 450 kts | 284° |
| 2026-05-05 12:20 | 5.90451 | 84.83807 | 34010 ft | 450 kts | 284° |
| 2026-05-05 12:21 | 5.92014 | 84.77724 | 34010 ft | 450 kts | 284° |
| 2026-05-05 12:21 | 5.93580 | 84.71645 | 34010 ft | 450 kts | 284° |
| 2026-05-05 12:22 | 5.95156 | 84.65564 | 34007 ft | 450 kts | 284° |
| 2026-05-05 12:22 | 5.96728 | 84.59484 | 34010 ft | 450 kts | 284° |
| 2026-05-05 12:23 | 5.98289 | 84.53400 | 34010 ft | 450 kts | 284° |
| 2026-05-05 12:23 | 5.99834 | 84.47361 | 34010 ft | 450 kts | 284° |
| 2026-05-05 12:24 | 6.01400 | 84.41279 | 34010 ft | 450 kts | 284° |
| 2026-05-05 12:24 | 6.02970 | 84.35190 | 34010 ft | 450 kts | 284° |
| 2026-05-05 12:25 | 6.04537 | 84.29105 | 34010 ft | 450 kts | 284° |
| 2026-05-05 12:25 | 6.06102 | 84.23017 | 34010 ft | 450 kts | 284° |
| 2026-05-05 12:26 | 6.07662 | 84.16935 | 34010 ft | 450 kts | 284° |
| 2026-05-05 12:26 | 6.09219 | 84.10852 | 34010 ft | 450 kts | 284° |
| 2026-05-05 12:27 | 6.10780 | 84.04766 | 34007 ft | 450 kts | 284° |
| 2026-05-05 12:27 | 6.12343 | 83.98677 | 34010 ft | 450 kts | 284° |
| 2026-05-05 12:28 | 6.13898 | 83.92592 | 34010 ft | 450 kts | 284° |
| 2026-05-05 12:28 | 6.15443 | 83.86543 | 34007 ft | 450 kts | 284° |
| 2026-05-05 12:29 | 6.17007 | 83.80453 | 34010 ft | 450 kts | 284° |
| 2026-05-05 12:29 | 6.18561 | 83.74370 | 34010 ft | 450 kts | 284° |
| 2026-05-05 12:30 | 6.20119 | 83.68274 | 34010 ft | 450 kts | 284° |
| 2026-05-05 12:30 | 6.21673 | 83.62194 | 34010 ft | 450 kts | 284° |
| 2026-05-05 12:31 | 6.23223 | 83.56108 | 34010 ft | 450 kts | 284° |
| 2026-05-05 12:31 | 6.24779 | 83.50023 | 34010 ft | 450 kts | 284° |
| 2026-05-05 12:32 | 6.26329 | 83.43932 | 34007 ft | 450 kts | 284° |
| 2026-05-05 12:32 | 6.27871 | 83.37847 | 34010 ft | 449 kts | 284° |
| 2026-05-05 12:33 | 6.29413 | 83.31802 | 34010 ft | 449 kts | 284° |
| 2026-05-05 12:33 | 6.30973 | 83.25712 | 34010 ft | 449 kts | 284° |
| 2026-05-05 12:34 | 6.32526 | 83.19624 | 34010 ft | 449 kts | 284° |
| 2026-05-05 12:34 | 6.34070 | 83.13538 | 34010 ft | 449 kts | 284° |
| 2026-05-05 12:35 | 6.35613 | 83.07457 | 34008 ft | 449 kts | 284° |
| 2026-05-05 12:35 | 6.37165 | 83.01362 | 34010 ft | 449 kts | 284° |
| 2026-05-05 12:36 | 6.38714 | 82.95278 | 34008 ft | 449 kts | 284° |
| 2026-05-05 12:36 | 6.40261 | 82.89185 | 34010 ft | 449 kts | 284° |
| 2026-05-05 12:37 | 6.41802 | 82.83096 | 34010 ft | 449 kts | 284° |
| 2026-05-05 12:37 | 6.43351 | 82.77003 | 34010 ft | 449 kts | 284° |
| 2026-05-05 12:38 | 6.44893 | 82.70923 | 34010 ft | 449 kts | 284° |
| 2026-05-05 12:38 | 6.46430 | 82.64827 | 34008 ft | 449 kts | 284° |
| 2026-05-05 12:39 | 6.47972 | 82.58731 | 34010 ft | 449 kts | 284° |
| 2026-05-05 12:39 | 6.49521 | 82.52643 | 34010 ft | 449 kts | 284° |
| 2026-05-05 12:40 | 6.51059 | 82.46559 | 34010 ft | 449 kts | 284° |
| 2026-05-05 12:40 | 6.52577 | 82.40510 | 34008 ft | 449 kts | 284° |
| 2026-05-05 12:41 | 6.54109 | 82.34433 | 33378 ft | 448 kts | 284° |
| 2026-05-05 12:41 | 6.54880 | 82.31388 | 32603 ft | 449 kts | 284° |
| 2026-05-05 12:41 | 6.55653 | 82.28336 | 31820 ft | 451 kts | 284° |
| 2026-05-05 12:42 | 6.56429 | 82.25281 | 31202 ft | 448 kts | 284° |
| 2026-05-05 12:42 | 6.57196 | 82.22265 | 30644 ft | 444 kts | 284° |
| 2026-05-05 12:42 | 6.57959 | 82.19259 | 30077 ft | 440 kts | 284° |
| 2026-05-05 12:42 | 6.58708 | 82.16298 | 29524 ft | 437 kts | 284° |
| 2026-05-05 12:43 | 6.59451 | 82.13346 | 28982 ft | 433 kts | 284° |
| 2026-05-05 12:43 | 6.60194 | 82.10377 | 28436 ft | 429 kts | 284° |
| 2026-05-05 12:43 | 6.60920 | 82.07480 | 27894 ft | 425 kts | 284° |
| 2026-05-05 12:43 | 6.61632 | 82.04652 | 27361 ft | 422 kts | 284° |
| 2026-05-05 12:44 | 6.62352 | 82.01797 | 26828 ft | 418 kts | 284° |
| 2026-05-05 12:44 | 6.63064 | 81.98981 | 26295 ft | 415 kts | 284° |
| 2026-05-05 12:44 | 6.63774 | 81.96176 | 25759 ft | 412 kts | 284° |
| 2026-05-05 12:44 | 6.64475 | 81.93398 | 25225 ft | 408 kts | 284° |
| 2026-05-05 12:45 | 6.65166 | 81.90648 | 24692 ft | 405 kts | 284° |
| 2026-05-05 12:45 | 6.65629 | 81.88801 | 24332 ft | 402 kts | 284° |
| 2026-05-05 12:45 | 6.66302 | 81.86110 | 23800 ft | 399 kts | 284° |
| 2026-05-05 12:45 | 6.67234 | 81.82509 | 23107 ft | 395 kts | 286° |
| 2026-05-05 12:46 | 6.67749 | 81.80770 | 22776 ft | 393 kts | 287° |
| 2026-05-05 12:46 | 6.68588 | 81.78161 | 22276 ft | 390 kts | 288° |
| 2026-05-05 12:46 | 6.69460 | 81.75590 | 21784 ft | 387 kts | 289° |
| 2026-05-05 12:46 | 6.70339 | 81.73032 | 21297 ft | 384 kts | 289° |
| 2026-05-05 12:47 | 6.71199 | 81.70496 | 20816 ft | 382 kts | 288° |
| 2026-05-05 12:47 | 6.71768 | 81.68789 | 20493 ft | 380 kts | 288° |
| 2026-05-05 12:47 | 6.72856 | 81.65468 | 19879 ft | 376 kts | 288° |
| 2026-05-05 12:47 | 6.73661 | 81.62975 | 19415 ft | 374 kts | 288° |
| 2026-05-05 12:48 | 6.74460 | 81.60491 | 18955 ft | 371 kts | 288° |
| 2026-05-05 12:48 | 6.75255 | 81.58027 | 18512 ft | 369 kts | 288° |
| 2026-05-05 12:48 | 6.76043 | 81.55587 | 18066 ft | 366 kts | 288° |
| 2026-05-05 12:48 | 6.76831 | 81.53151 | 17625 ft | 364 kts | 288° |
| 2026-05-05 12:49 | 6.77614 | 81.50738 | 17190 ft | 362 kts | 288° |
| 2026-05-05 12:49 | 6.78391 | 81.48354 | 16764 ft | 359 kts | 288° |
| 2026-05-05 12:49 | 6.79172 | 81.45957 | 16327 ft | 357 kts | 288° |
| 2026-05-05 12:49 | 6.79940 | 81.43591 | 15904 ft | 355 kts | 288° |
| 2026-05-05 12:50 | 6.80704 | 81.41232 | 15479 ft | 353 kts | 288° |
| 2026-05-05 12:50 | 6.81459 | 81.38896 | 15066 ft | 350 kts | 288° |
| 2026-05-05 12:50 | 6.82211 | 81.36574 | 14641 ft | 348 kts | 288° |
| 2026-05-05 12:50 | 6.82957 | 81.34270 | 14223 ft | 346 kts | 288° |
| 2026-05-05 12:51 | 6.83699 | 81.31970 | 13792 ft | 344 kts | 288° |
| 2026-05-05 12:51 | 6.84438 | 81.29683 | 13377 ft | 342 kts | 288° |
| 2026-05-05 12:51 | 6.85172 | 81.27417 | 12951 ft | 340 kts | 288° |
| 2026-05-05 12:51 | 6.85893 | 81.25191 | 12529 ft | 338 kts | 288° |
| 2026-05-05 12:52 | 6.86617 | 81.22946 | 12105 ft | 336 kts | 288° |
| 2026-05-05 12:52 | 6.87344 | 81.20689 | 11670 ft | 334 kts | 288° |
| 2026-05-05 12:52 | 6.88061 | 81.18472 | 11267 ft | 332 kts | 288° |
| 2026-05-05 12:52 | 6.88778 | 81.16265 | 11163 ft | 332 kts | 288° |
| 2026-05-05 12:53 | 6.89489 | 81.14070 | 11175 ft | 334 kts | 288° |
| 2026-05-05 12:53 | 6.90207 | 81.11854 | 11178 ft | 335 kts | 288° |
| 2026-05-05 12:53 | 6.90932 | 81.09618 | 11179 ft | 337 kts | 288° |
| 2026-05-05 12:53 | 6.91654 | 81.07381 | 11179 ft | 336 kts | 288° |
| 2026-05-05 12:54 | 6.93099 | 81.02913 | 11178 ft | 335 kts | 288° |
| 2026-05-05 12:54 | 6.93818 | 81.00683 | 11178 ft | 335 kts | 288° |
| 2026-05-05 12:54 | 6.94537 | 80.98453 | 11179 ft | 336 kts | 288° |
| 2026-05-05 12:55 | 6.95260 | 80.96214 | 11179 ft | 335 kts | 288° |
| 2026-05-05 12:55 | 6.95979 | 80.93990 | 11178 ft | 335 kts | 288° |
| 2026-05-05 12:55 | 6.96699 | 80.91754 | 11178 ft | 335 kts | 288° |
| 2026-05-05 12:55 | 6.97418 | 80.89523 | 11179 ft | 336 kts | 288° |
| 2026-05-05 12:56 | 6.98137 | 80.87286 | 11179 ft | 337 kts | 288° |
| 2026-05-05 12:56 | 6.98863 | 80.85032 | 11176 ft | 338 kts | 288° |
| 2026-05-05 12:56 | 6.99591 | 80.82779 | 11180 ft | 339 kts | 288° |
| 2026-05-05 12:56 | 7.00072 | 80.81291 | 11176 ft | 339 kts | 288° |
| 2026-05-05 12:57 | 7.00804 | 80.79029 | 11179 ft | 339 kts | 288° |
| 2026-05-05 12:57 | 7.01782 | 80.76006 | 11177 ft | 339 kts | 288° |
| 2026-05-05 12:57 | 7.02511 | 80.73749 | 11177 ft | 336 kts | 288° |
| 2026-05-05 12:57 | 7.03212 | 80.71566 | 11173 ft | 321 kts | 288° |
| 2026-05-05 12:58 | 7.03882 | 80.69478 | 11175 ft | 307 kts | 288° |
| 2026-05-05 12:58 | 7.04522 | 80.67484 | 11176 ft | 293 kts | 288° |
| 2026-05-05 12:58 | 7.05136 | 80.65577 | 11177 ft | 279 kts | 288° |
| 2026-05-05 12:58 | 7.05721 | 80.63762 | 11176 ft | 266 kts | 287° |
| 2026-05-05 12:59 | 7.06222 | 80.61986 | 11175 ft | 262 kts | 284° |
| 2026-05-05 12:59 | 7.06668 | 80.60201 | 10955 ft | 263 kts | 283° |
| 2026-05-05 12:59 | 7.07094 | 80.58422 | 10705 ft | 261 kts | 283° |
| 2026-05-05 13:00 | 7.07934 | 80.54898 | 10201 ft | 258 kts | 283° |
| 2026-05-05 13:00 | 7.08352 | 80.53173 | 10038 ft | 256 kts | 283° |
| 2026-05-05 13:01 | 7.09642 | 80.47940 | 9661 ft | 256 kts | 284° |
| 2026-05-05 13:01 | 7.10070 | 80.46205 | 9536 ft | 255 kts | 284° |
| 2026-05-05 13:01 | 7.10498 | 80.44468 | 9411 ft | 256 kts | 284° |
| 2026-05-05 13:01 | 7.10927 | 80.42734 | 9285 ft | 255 kts | 284° |
| 2026-05-05 13:02 | 7.11212 | 80.41583 | 9202 ft | 255 kts | 284° |
| 2026-05-05 13:02 | 7.11643 | 80.39836 | 9075 ft | 254 kts | 284° |
| 2026-05-05 13:02 | 7.12060 | 80.38142 | 8952 ft | 253 kts | 284° |
| 2026-05-05 13:02 | 7.12483 | 80.36420 | 8816 ft | 251 kts | 284° |
| 2026-05-05 13:03 | 7.12904 | 80.34717 | 8701 ft | 251 kts | 284° |
| 2026-05-05 13:03 | 7.13326 | 80.33013 | 8572 ft | 249 kts | 284° |
| 2026-05-05 13:03 | 7.13887 | 80.30763 | 8400 ft | 246 kts | 284° |
| 2026-05-05 13:03 | 7.14304 | 80.29099 | 8277 ft | 244 kts | 284° |
| 2026-05-05 13:04 | 7.14721 | 80.27443 | 8104 ft | 244 kts | 284° |
| 2026-05-05 13:04 | 7.15140 | 80.25784 | 7931 ft | 246 kts | 284° |
| 2026-05-05 13:04 | 7.15566 | 80.24107 | 7799 ft | 247 kts | 284° |
| 2026-05-05 13:04 | 7.15994 | 80.22432 | 7674 ft | 247 kts | 284° |
| 2026-05-05 13:05 | 7.16424 | 80.20757 | 7559 ft | 247 kts | 284° |
| 2026-05-05 13:05 | 7.16851 | 80.19105 | 7447 ft | 247 kts | 284° |
| 2026-05-05 13:05 | 7.17292 | 80.17405 | 7278 ft | 249 kts | 284° |
| 2026-05-05 13:05 | 7.17725 | 80.15742 | 7131 ft | 248 kts | 284° |
| 2026-05-05 13:06 | 7.18163 | 80.14069 | 7021 ft | 247 kts | 285° |
| 2026-05-05 13:06 | 7.18717 | 80.12426 | 6859 ft | 248 kts | 295° |
| 2026-05-05 13:06 | 7.19604 | 80.10951 | 6685 ft | 245 kts | 308° |
| 2026-05-05 13:06 | 7.20789 | 80.09713 | 6510 ft | 240 kts | 316° |
| 2026-05-05 13:07 | 7.21991 | 80.08607 | 6353 ft | 234 kts | 317° |
| 2026-05-05 13:07 | 7.23199 | 80.07535 | 6200 ft | 228 kts | 319° |
| 2026-05-05 13:07 | 7.24370 | 80.06481 | 6046 ft | 223 kts | 315° |
| 2026-05-05 13:07 | 7.25395 | 80.05344 | 5889 ft | 217 kts | 307° |
| 2026-05-05 13:08 | 7.26264 | 80.04111 | 5717 ft | 216 kts | 303° |
| 2026-05-05 13:08 | 7.27182 | 80.02922 | 5558 ft | 215 kts | 315° |
| 2026-05-05 13:08 | 7.28371 | 80.02029 | 5402 ft | 213 kts | 334° |
| 2026-05-05 13:08 | 7.29796 | 80.01630 | 5265 ft | 213 kts | 356° |
| 2026-05-05 13:09 | 7.31283 | 80.01621 | 5068 ft | 215 kts | 1° |
| 2026-05-05 13:09 | 7.32797 | 80.01675 | 4758 ft | 218 kts | 0° |
| 2026-05-05 13:09 | 7.34321 | 80.01678 | 4453 ft | 221 kts | 358° |
| 2026-05-05 13:09 | 7.35871 | 80.01626 | 4097 ft | 225 kts | 357° |
| 2026-05-05 13:10 | 7.37441 | 80.01542 | 3746 ft | 226 kts | 356° |
| 2026-05-05 13:10 | 7.38998 | 80.01359 | 3347 ft | 222 kts | 345° |
| 2026-05-05 13:10 | 7.40386 | 80.00758 | 2896 ft | 218 kts | 324° |
| 2026-05-05 13:10 | 7.41462 | 79.99683 | 2562 ft | 220 kts | 302° |
| 2026-05-05 13:11 | 7.41986 | 79.98246 | 2278 ft | 220 kts | 276° |
| 2026-05-05 13:11 | 7.41943 | 79.96749 | 2266 ft | 208 kts | 259° |
| 2026-05-05 13:11 | 7.41458 | 79.95406 | 2263 ft | 204 kts | 237° |
| 2026-05-05 13:11 | 7.40458 | 79.94418 | 2222 ft | 204 kts | 209° |
| 2026-05-05 13:12 | 7.39099 | 79.94066 | 2195 ft | 204 kts | 181° |
| 2026-05-05 13:12 | 7.37680 | 79.94077 | 2188 ft | 204 kts | 179° |
| 2026-05-05 13:12 | 7.36268 | 79.94141 | 2165 ft | 203 kts | 177° |
| 2026-05-05 13:12 | 7.34900 | 79.94216 | 2236 ft | 193 kts | 176° |
| 2026-05-05 13:13 | 7.33619 | 79.94450 | 2215 ft | 186 kts | 161° |
| 2026-05-05 13:13 | 7.32468 | 79.95081 | 2041 ft | 190 kts | 143° |
| 2026-05-05 13:13 | 7.31458 | 79.95953 | 1869 ft | 192 kts | 138° |
| 2026-05-05 13:13 | 7.30432 | 79.96815 | 1679 ft | 194 kts | 151° |
| 2026-05-05 13:14 | 7.29167 | 79.97151 | 1621 ft | 187 kts | 184° |
| 2026-05-05 13:14 | 7.27919 | 79.96804 | 1667 ft | 187 kts | 202° |
| 2026-05-05 13:14 | 7.26728 | 79.96294 | 1739 ft | 185 kts | 204° |
| 2026-05-05 13:14 | 7.25559 | 79.95731 | 1743 ft | 188 kts | 218° |
| 2026-05-05 13:15 | 7.24962 | 79.94591 | 1642 ft | 192 kts | 265° |
| 2026-05-05 13:15 | 7.25080 | 79.93250 | 1682 ft | 197 kts | 283° |
| 2026-05-05 13:15 | 7.25772 | 79.92033 | 1799 ft | 210 kts | 323° |
| 2026-05-05 13:15 | 7.27068 | 79.91367 | 2253 ft | 204 kts | 333° |
| 2026-05-05 13:16 | 7.28222 | 79.90626 | 2357 ft | 193 kts | 317° |
| 2026-05-05 13:16 | 7.29130 | 79.89638 | 2272 ft | 191 kts | 309° |
| 2026-05-05 13:16 | 7.29740 | 79.89003 | 2210 ft | 191 kts | 321° |
| 2026-05-05 13:16 | 7.31350 | 79.88370 | 2164 ft | 189 kts | 358° |
| 2026-05-05 13:17 | 7.32624 | 79.88635 | 2170 ft | 189 kts | 26° |
| 2026-05-05 13:17 | 7.33706 | 79.89387 | 2197 ft | 188 kts | 38° |
| 2026-05-05 13:17 | 7.34715 | 79.90210 | 2217 ft | 186 kts | 38° |
| 2026-05-05 13:17 | 7.35709 | 79.91016 | 2224 ft | 185 kts | 38° |
| 2026-05-05 13:18 | 7.36717 | 79.91826 | 2238 ft | 185 kts | 38° |
| 2026-05-05 13:18 | 7.37717 | 79.92621 | 2283 ft | 181 kts | 37° |
| 2026-05-05 13:18 | 7.38607 | 79.93541 | 2240 ft | 190 kts | 63° |
| 2026-05-05 13:18 | 7.38829 | 79.94852 | 2253 ft | 195 kts | 100° |
| 2026-05-05 13:19 | 7.38285 | 79.96076 | 2282 ft | 191 kts | 124° |
| 2026-05-05 13:19 | 7.37513 | 79.97161 | 2279 ft | 190 kts | 127° |
| 2026-05-05 13:19 | 7.36710 | 79.98221 | 2255 ft | 192 kts | 131° |
| 2026-05-05 13:19 | 7.35644 | 79.99015 | 2197 ft | 193 kts | 161° |
| 2026-05-05 13:20 | 7.34315 | 79.99124 | 2017 ft | 193 kts | 193° |
| 2026-05-05 13:20 | 7.33136 | 79.98563 | 1899 ft | 183 kts | 214° |
| 2026-05-05 13:20 | 7.32092 | 79.97884 | 1919 ft | 175 kts | 208° |
| 2026-05-05 13:20 | 7.30968 | 79.97397 | 1874 ft | 178 kts | 201° |
| 2026-05-05 13:21 | 7.29824 | 79.96945 | 1710 ft | 173 kts | 202° |
| 2026-05-05 13:21 | 7.28746 | 79.96506 | 1705 ft | 159 kts | 205° |
| 2026-05-05 13:21 | 7.27843 | 79.95889 | 1712 ft | 158 kts | 223° |
| 2026-05-05 13:21 | 7.27013 | 79.95169 | 1780 ft | 157 kts | 217° |
| 2026-05-05 13:22 | 7.26122 | 79.94511 | 1778 ft | 162 kts | 217° |
| 2026-05-05 13:22 | 7.25233 | 79.93833 | 1583 ft | 155 kts | 219° |
| 2026-05-05 13:22 | 7.24419 | 79.93160 | 1332 ft | 148 kts | 219° |
| 2026-05-05 13:22 | 7.23597 | 79.92565 | 1105 ft | 143 kts | 214° |
| 2026-05-05 13:23 | 7.22811 | 79.91960 | 949 ft | 142 kts | 218° |
| 2026-05-05 13:23 | 7.22013 | 79.91370 | 762 ft | 143 kts | 217° |
| 2026-05-05 13:23 | 7.21213 | 79.90761 | 526 ft | 146 kts | 219° |
| 2026-05-05 13:23 | 7.20431 | 79.90129 | 375 ft | 142 kts | 218° |
| 2026-05-05 13:24 | 7.19639 | 79.89525 | 172 ft | 143 kts | 218° |
| 2026-05-05 13:24 | 7.18856 | 79.88924 | 35 ft | 135 kts | 217° |
| 2026-05-05 13:24 | 7.18206 | 79.88439 | 27 ft | 85 kts | 216° |
| 2026-05-05 13:24 | 7.17972 | 79.88265 | 29 ft | 0 kts | 217° |
| 2026-05-05 13:25 | 7.17936 | 79.88242 | 29 ft | 17 kts | 210° |
| 2026-05-05 13:25 | 7.17856 | 79.88241 | 30 ft | 10 kts | 147° |
| 2026-05-05 13:25 | 7.17774 | 79.88326 | 28 ft | 20 kts | 145° |
| 2026-05-05 13:25 | 7.17759 | 79.88330 | 28 ft | 3 kts | 182° |
| 2026-05-05 13:26 | 7.17681 | 79.88275 | 28 ft | 17 kts | 219° |
| 2026-05-05 13:26 | 7.17598 | 79.88295 | 27 ft | 14 kts | 128° |
| 2026-05-05 13:26 | 7.17554 | 79.88371 | 27 ft | 11 kts | 83° |
| 2026-05-05 13:26 | 7.17593 | 79.88400 | 27 ft | 5 kts | 31° |
| 2026-05-05 13:27 | 7.17603 | 79.88407 | 27 ft | 3 kts | 34° |
| 2026-05-05 13:27 | 7.17608 | 79.88411 | 27 ft | 0 kts | 35° |